Time;durP1;ratioP1;P1;durP2;ratioP2;P2;SDS_P1;SDS_P2;PMS_P1;PMS_P2;Temp;Humidity;BMP_temperature;BMP_pressure;BME280_temperature;BME280_humidity;BME280_pressure;Samples;Min_cycle;Max_cycle;Signal;HPM_P1;HPM_P2
2023/05/16 00:00:14;;;;;;;13.52;7.20;;;;;;;8.94;100.00;98479.69;5028077;28;20491;-77
2023/05/16 00:02:40;;;;;;;11.32;6.50;;;;;;;9.04;100.00;98491.97;5026742;28;20471;-75
2023/05/16 00:05:06;;;;;;;10.27;6.55;;;;;;;8.98;100.00;98483.66;5039665;28;20079;-75
2023/05/16 00:07:33;;;;;;;9.30;5.95;;;;;;;9.12;100.00;98491.81;5030525;28;20399;-75
2023/05/16 00:09:59;;;;;;;11.68;5.95;;;;;;;9.06;100.00;98489.91;5020038;28;20415;-76
2023/05/16 00:12:24;;;;;;;10.77;7.00;;;;;;;8.99;100.00;98479.94;5030106;28;20037;-76
2023/05/16 00:14:51;;;;;;;14.57;6.53;;;;;;;9.00;100.00;98497.78;5024466;28;20546;-76
2023/05/16 00:17:16;;;;;;;10.13;6.82;;;;;;;9.00;100.00;98497.78;5020647;28;20025;-76
2023/05/16 00:19:43;;;;;;;10.95;6.85;;;;;;;8.97;100.00;98492.78;5019276;28;20029;-76
2023/05/16 00:22:10;;;;;;;12.70;7.38;;;;;;;8.86;100.00;98474.47;5049779;28;20021;-75
2023/05/16 00:24:35;;;;;;;10.95;6.53;;;;;;;8.89;100.00;98467.84;5031385;28;20028;-75
2023/05/16 00:27:02;;;;;;;10.90;7.05;;;;;;;8.93;100.00;98479.88;5031102;28;20096;-75
2023/05/16 00:29:31;;;;;;;9.48;6.85;;;;;;;8.99;100.00;98477.22;5029960;28;20021;-76
2023/05/16 00:31:56;;;;;;;12.73;7.28;;;;;;;8.78;100.00;98444.97;5044366;28;20099;-76
2023/05/16 00:34:22;;;;;;;13.30;7.60;;;;;;;8.89;100.00;98468.69;5031042;28;20151;-76
2023/05/16 00:36:49;;;;;;;18.10;7.35;;;;;;;8.83;100.00;98485.69;5032685;28;20026;-77
2023/05/16 00:39:14;;;;;;;11.95;7.90;;;;;;;8.75;100.00;98489.38;5033475;28;20499;-76
2023/05/16 00:41:40;;;;;;;17.17;7.65;;;;;;;8.73;100.00;98491.41;5026389;28;20029;-76
2023/05/16 00:44:05;;;;;;;15.80;8.20;;;;;;;8.54;100.00;98476.81;5023308;28;20029;-77
2023/05/16 00:46:31;;;;;;;10.77;7.82;;;;;;;8.60;100.00;98482.44;5027868;28;20056;-75
2023/05/16 00:48:56;;;;;;;11.75;7.63;;;;;;;8.60;100.00;98491.34;5027146;28;20029;-75
2023/05/16 00:51:21;;;;;;;12.70;7.38;;;;;;;8.54;100.00;98471.41;5023031;28;20021;-76
2023/05/16 00:53:47;;;;;;;12.55;7.13;;;;;;;8.57;100.00;98486.34;5020573;28;20026;-76
2023/05/16 00:56:12;;;;;;;9.93;6.97;;;;;;;8.46;100.00;98481.50;5025950;28;20033;-74
2023/05/16 00:58:38;;;;;;;9.93;7.10;;;;;;;8.31;100.00;98470.81;5027345;28;20032;-76
2023/05/16 01:01:03;;;;;;;11.18;7.68;;;;;;;8.30;100.00;98482.59;5035572;28;20056;-75
2023/05/16 01:03:29;;;;;;;11.95;7.90;;;;;;;8.31;100.00;98493.19;5030646;28;20065;-75
2023/05/16 01:05:55;;;;;;;12.70;8.20;;;;;;;8.20;100.00;98474.03;5027595;28;20024;-76
2023/05/16 01:08:20;;;;;;;14.20;9.25;;;;;;;8.32;100.00;98483.25;5026869;28;20120;-76
2023/05/16 01:11:01;;;;;;;13.23;7.97;;;;;;;8.45;100.00;98488.75;5039244;28;20020;-75
2023/05/16 01:13:40;;;;;;;13.98;7.70;;;;;;;8.37;100.00;98478.09;5032378;28;20036;-75
2023/05/16 01:16:15;;;;;;;13.77;8.18;;;;;;;8.34;100.00;98491.97;5023968;28;20083;-77
2023/05/16 01:18:49;;;;;;;17.70;8.23;;;;;;;8.31;100.00;98493.19;5027902;28;20033;-76
2023/05/16 01:21:24;;;;;;;16.63;8.02;;;;;;;8.19;100.00;98489.38;5043421;28;20032;-76
2023/05/16 01:24:02;;;;;;;14.43;8.82;;;;;;;8.13;100.00;98487.47;5037314;28;20032;-75
2023/05/16 01:26:28;;;;;;;13.30;8.60;;;;;;;8.21;100.00;98508.88;5024942;28;20053;-75
2023/05/16 01:28:54;;;;;;;15.95;9.25;;;;;;;8.04;100.00;98497.56;5044066;28;20040;-75
2023/05/16 01:31:21;;;;;;;13.48;8.15;;;;;;;8.14;100.00;98513.38;5029941;28;20021;-76
2023/05/16 01:33:46;;;;;;;11.95;8.10;;;;;;;8.07;100.00;98490.97;5032005;28;20033;-76
2023/05/16 01:36:51;;;;;;;13.13;7.65;;;;;;;8.29;100.00;98494.44;5029086;28;20055;-76
2023/05/16 01:39:36;;;;;;;11.48;7.68;;;;;;;8.43;100.00;98512.38;5032382;28;20499;-76
2023/05/16 01:42:11;;;;;;;10.70;7.32;;;;;;;8.34;100.00;98502.75;5026129;28;20503;-75
2023/05/16 01:44:43;;;;;;;12.05;7.80;;;;;;;8.34;100.00;98497.38;5037322;28;20403;-76
2023/05/16 01:47:12;;;;;;;12.27;8.00;;;;;;;8.43;100.00;98498.91;5014421;28;20032;-76
2023/05/16 01:49:45;;;;;;;11.00;7.30;;;;;;;8.47;100.00;98500.19;5013702;28;20026;-75
2023/05/16 01:52:15;;;;;;;11.45;7.15;;;;;;;8.39;100.00;98484.16;5024570;28;20021;-76
2023/05/16 01:54:46;;;;;;;13.43;7.45;;;;;;;8.43;100.00;98495.38;5019003;28;20566;-75
2023/05/16 01:57:12;;;;;;;12.57;8.32;;;;;;;8.59;100.00;98505.03;5027580;28;20068;-77
2023/05/16 01:59:39;;;;;;;12.93;8.10;;;;;;;8.59;100.00;98502.31;5028182;28;20052;-76
2023/05/16 02:02:04;;;;;;;15.25;9.00;;;;;;;8.46;100.00;98485.06;5017954;28;20026;-75
2023/05/16 02:04:30;;;;;;;14.43;7.68;;;;;;;8.40;100.00;98475.03;5028923;28;20483;-75
2023/05/16 02:06:55;;;;;;;12.57;7.70;;;;;;;8.45;100.00;98487.94;5030839;28;20163;-76
2023/05/16 02:09:21;;;;;;;10.93;7.13;;;;;;;8.49;100.00;98497.31;5029799;28;20108;-76
2023/05/16 02:11:46;;;;;;;14.48;7.53;;;;;;;8.28;100.00;98461.25;5020493;28;20028;-75
2023/05/16 02:14:11;;;;;;;13.07;7.75;;;;;;;8.44;100.00;98505.97;5035022;28;20033;-76
2023/05/16 02:16:37;;;;;;;11.80;8.23;;;;;;;8.28;100.00;98482.00;5026053;28;20084;-76
2023/05/16 02:19:03;;;;;;;15.48;7.85;;;;;;;8.19;100.00;98478.59;5027128;28;20038;-75
2023/05/16 02:21:28;;;;;;;16.70;8.20;;;;;;;8.11;100.00;98479.56;5016947;28;20026;-75
2023/05/16 02:23:53;;;;;;;14.07;8.88;;;;;;;8.08;100.00;98488.03;5046862;28;20025;-75
2023/05/16 02:26:18;;;;;;;16.15;9.13;;;;;;;8.06;100.00;98491.97;5028459;28;20025;-75
2023/05/16 02:28:44;;;;;;;17.55;9.18;;;;;;;8.16;100.00;98511.31;5033018;23;20057;-62
2023/05/16 02:31:10;;;;;;;17.17;8.88;;;;;;;8.21;100.00;98516.13;5001419;28;20030;-60
2023/05/16 02:33:35;;;;;;;12.07;8.35;;;;;;;8.16;100.00;98516.72;4998853;28;20026;-61
2023/05/16 02:36:00;;;;;;;14.93;9.00;;;;;;;8.28;100.00;98520.56;5006082;28;20088;-61
2023/05/16 02:38:26;;;;;;;14.43;8.27;;;;;;;8.34;100.00;98519.75;5004675;28;20025;-61
2023/05/16 02:40:51;;;;;;;12.40;8.07;;;;;;;8.30;100.00;98517.66;5003729;28;20034;-61
2023/05/16 02:43:16;;;;;;;10.65;7.40;;;;;;;8.29;100.00;98522.22;5011074;28;20485;-61
2023/05/16 02:45:43;;;;;;;11.10;6.65;;;;;;;8.23;100.00;98523.00;5006689;28;20026;-60
2023/05/16 02:48:08;;;;;;;11.10;7.30;;;;;;;8.32;100.00;98515.59;5000792;28;20515;-61
2023/05/16 02:50:34;;;;;;;11.55;7.95;;;;;;;8.40;100.00;98501.16;5009758;28;20034;-60
2023/05/16 02:53:01;;;;;;;12.02;7.63;;;;;;;8.42;100.00;98507.19;5013606;28;20017;-61
2023/05/16 02:55:27;;;;;;;12.15;7.70;;;;;;;8.35;100.00;98517.88;5012236;28;20033;-61
2023/05/16 02:57:52;;;;;;;11.73;7.95;;;;;;;8.38;100.00;98512.09;5012656;28;20030;-60
2023/05/16 03:00:18;;;;;;;15.45;8.52;;;;;;;8.40;100.00;98510.09;5012972;28;20030;-60
2023/05/16 03:02:44;;;;;;;11.95;8.15;;;;;;;8.41;100.00;98521.69;5015130;28;20487;-60
2023/05/16 03:05:10;;;;;;;12.70;8.43;;;;;;;8.34;100.00;98511.66;5003124;28;20125;-60
2023/05/16 03:07:36;;;;;;;13.77;8.38;;;;;;;8.33;100.00;98526.19;5011206;28;20026;-61
2023/05/16 03:10:02;;;;;;;19.98;9.02;;;;;;;8.39;100.00;98521.91;5009689;28;20032;-61
2023/05/16 03:12:27;;;;;;;14.18;8.35;;;;;;;8.47;100.00;98526.31;5007549;28;20034;-61
2023/05/16 03:14:53;;;;;;;13.00;8.52;;;;;;;8.57;100.00;98518.72;5008304;28;20022;-60
2023/05/16 03:17:18;;;;;;;11.43;8.27;;;;;;;8.64;100.00;98519.56;4996265;28;20478;-61
2023/05/16 03:19:44;;;;;;;13.43;8.63;;;;;;;8.62;100.00;98523.50;5011242;28;20174;-61
2023/05/16 03:22:09;;;;;;;13.95;8.80;;;;;;;8.59;100.00;98518.50;5008825;28;20026;-60
2023/05/16 03:24:34;;;;;;;15.05;9.25;;;;;;;8.61;100.00;98517.28;5001007;28;20475;-61
2023/05/16 03:27:00;;;;;;;13.25;8.80;;;;;;;8.67;100.00;98507.56;5006212;28;20080;-61
2023/05/16 03:29:25;;;;;;;15.02;8.68;;;;;;;8.75;100.00;98520.88;5004787;28;20054;-61
2023/05/16 03:31:51;;;;;;;20.23;8.63;;;;;;;8.78;100.00;98517.81;5012521;28;20030;-61
2023/05/16 03:34:17;;;;;;;19.58;9.40;;;;;;;8.87;100.00;98516.59;5004958;28;20032;-60
2023/05/16 03:36:42;;;;;;;12.68;8.48;;;;;;;8.84;100.00;98516.16;5003960;28;20044;-61
2023/05/16 03:39:07;;;;;;;14.55;8.23;;;;;;;8.80;100.00;98504.94;5003617;28;20129;-61
2023/05/16 03:41:33;;;;;;;11.25;7.65;;;;;;;8.80;100.00;98520.28;5010346;28;20021;-60
2023/05/16 03:43:59;;;;;;;14.60;8.52;;;;;;;8.83;100.00;98517.19;5028434;28;20409;-60
2023/05/16 03:46:25;;;;;;;11.27;7.88;;;;;;;8.82;100.00;98521.75;5009435;28;20029;-60
2023/05/16 03:48:50;;;;;;;12.25;8.27;;;;;;;8.90;100.00;98516.19;5006589;28;20026;-60
2023/05/16 03:51:16;;;;;;;14.43;8.30;;;;;;;8.95;100.00;98505.63;5009434;28;20025;-60
2023/05/16 03:53:41;;;;;;;10.88;7.90;;;;;;;8.96;100.00;98515.41;5012188;28;20120;-60
2023/05/16 03:56:07;;;;;;;10.35;7.60;;;;;;;8.94;100.00;98503.16;5012291;28;20478;-62
2023/05/16 03:58:33;;;;;;;10.13;6.75;;;;;;;9.00;100.00;98511.25;5009461;28;20087;-60
2023/05/16 04:00:58;;;;;;;12.57;8.18;;;;;;;9.12;100.00;98511.53;5005210;28;20022;-59
2023/05/16 04:03:27;;;;;;;11.48;7.15;;;;;;;9.19;100.00;98511.56;5009487;28;22038;-60
2023/05/16 04:05:54;;;;;;;11.65;7.57;;;;;;;9.17;100.00;98513.63;5009117;28;21147;-60
2023/05/16 04:08:19;;;;;;;13.82;8.02;;;;;;;9.17;100.00;98514.47;5001298;28;20125;-65
2023/05/16 04:10:45;;;;;;;13.30;8.60;;;;;;;9.18;100.00;98515.28;5014489;28;20068;-59
2023/05/16 04:13:10;;;;;;;16.55;9.55;;;;;;;9.24;100.00;98519.06;5016669;28;20093;-59
2023/05/16 04:15:35;;;;;;;14.38;8.90;;;;;;;9.24;100.00;98522.56;5017825;28;20486;-59
2023/05/16 04:18:01;;;;;;;15.32;9.48;;;;;;;9.23;100.00;98520.91;5006376;28;20022;-59
2023/05/16 04:20:27;;;;;;;14.02;8.77;;;;;;;9.27;100.00;98527.56;5012468;28;20026;-59
2023/05/16 04:22:52;;;;;;;20.35;8.73;;;;;;;9.30;100.00;98529.88;5008453;28;20022;-59
2023/05/16 04:25:17;;;;;;;15.20;9.43;;;;;;;9.32;100.00;98526.97;5002272;28;20500;-60
2023/05/16 04:27:43;;;;;;;16.23;9.45;;;;;;;9.38;100.00;98532.41;5002168;28;20030;-59
2023/05/16 04:30:10;;;;;;;16.73;9.13;;;;;;;9.43;100.00;98529.94;5006883;28;20029;-63
2023/05/16 04:32:36;;;;;;;15.80;9.52;;;;;;;9.51;100.00;98530.75;5010137;28;20469;-63
2023/05/16 04:35:02;;;;;;;15.38;9.38;;;;;;;9.68;100.00;98531.25;5009917;28;20041;-65
2023/05/16 04:37:27;;;;;;;17.50;10.23;;;;;;;9.79;100.00;98527.94;5000976;28;20468;-62
2023/05/16 04:39:53;;;;;;;15.63;9.32;;;;;;;9.96;100.00;98529.22;5000485;28;20026;-63
2023/05/16 04:42:20;;;;;;;20.40;10.57;;;;;;;10.09;100.00;98533.81;5013879;28;20022;-63
2023/05/16 04:44:46;;;;;;;18.60;9.98;;;;;;;10.19;100.00;98523.41;5012988;28;20033;-62
2023/05/16 04:47:12;;;;;;;15.82;9.88;;;;;;;10.30;100.00;98525.53;5014895;28;20029;-62
2023/05/16 04:49:38;;;;;;;17.27;11.05;;;;;;;10.43;100.00;98531.97;5008716;28;20413;-62
2023/05/16 04:52:04;;;;;;;21.23;10.65;;;;;;;10.48;100.00;98532.19;5010464;28;20025;-62
2023/05/16 04:54:30;;;;;;;14.80;9.70;;;;;;;10.43;100.00;98535.50;5006306;28;20027;-61
2023/05/16 04:56:56;;;;;;;16.42;9.65;;;;;;;10.47;100.00;98539.44;5013280;28;20117;-62
2023/05/16 04:59:21;;;;;;;16.92;9.27;;;;;;;10.47;100.00;98535.91;5008305;28;20036;-63
2023/05/16 05:01:47;;;;;;;21.33;10.20;;;;;;;10.56;100.00;98545.47;5002806;28;20474;-63
2023/05/16 05:04:13;;;;;;;22.80;11.43;;;;;;;10.58;100.00;98542.56;5003122;28;20049;-63
2023/05/16 05:06:38;;;;;;;18.08;10.55;;;;;;;10.75;100.00;98541.91;5003470;28;20107;-62
2023/05/16 05:09:04;;;;;;;17.08;10.45;;;;;;;10.88;100.00;98546.47;4998619;28;20030;-62
2023/05/16 05:11:30;;;;;;;18.17;11.38;;;;;;;10.94;100.00;98537.47;4993858;28;20434;-62
2023/05/16 05:13:56;;;;;;;18.13;10.27;;;;;;;11.22;100.00;98549.09;5004901;28;20030;-62
2023/05/16 05:16:22;;;;;;;19.10;10.82;;;;;;;11.33;100.00;98551.13;5012484;28;20034;-63
2023/05/16 05:18:48;;;;;;;18.67;11.63;;;;;;;11.50;100.00;98557.72;5011537;28;20061;-62
2023/05/16 05:21:13;;;;;;;19.23;11.77;;;;;;;11.60;100.00;98551.81;5011389;28;20061;-63
2023/05/16 05:23:39;;;;;;;21.60;13.00;;;;;;;11.80;100.00;98551.72;5003811;28;20573;-62
2023/05/16 05:26:04;;;;;;;26.30;12.20;;;;;;;11.87;100.00;98552.56;5011551;28;20084;-63
2023/05/16 05:28:30;;;;;;;21.77;12.38;;;;;;;12.09;100.00;98554.91;5007903;28;20040;-63
2023/05/16 05:30:55;;;;;;;19.00;11.57;;;;;;;12.11;100.00;98552.81;5003526;28;20122;-62
2023/05/16 05:33:26;;;;;;;18.02;11.18;;;;;;;12.33;100.00;98547.84;5003426;28;20108;-63
2023/05/16 05:35:52;;;;;;;16.42;10.38;;;;;;;12.62;100.00;98543.63;5007928;28;20021;-62
2023/05/16 05:38:18;;;;;;;16.10;9.50;;;;;;;12.85;100.00;98543.00;5010654;28;20084;-62
2023/05/16 05:40:44;;;;;;;15.82;9.85;;;;;;;13.31;100.00;98534.38;5009166;28;20029;-63
2023/05/16 05:43:10;;;;;;;20.60;10.25;;;;;;;13.80;100.00;98527.00;5007019;28;20029;-64
2023/05/16 05:45:36;;;;;;;15.93;9.95;;;;;;;14.18;100.00;98514.94;5009930;28;20089;-63
2023/05/16 05:48:01;;;;;;;14.93;10.43;;;;;;;14.45;100.00;98512.59;5009798;28;20158;-67
2023/05/16 05:50:29;;;;;;;22.58;13.70;;;;;;;14.55;100.00;98500.34;5015156;28;20112;-63
2023/05/16 05:52:55;;;;;;;22.33;13.38;;;;;;;14.86;100.00;98501.88;5016725;28;20485;-63
2023/05/16 05:55:21;;;;;;;22.40;14.23;;;;;;;14.80;100.00;98510.97;5011102;28;20489;-63
2023/05/16 05:57:46;;;;;;;20.10;13.02;;;;;;;14.76;100.00;98504.38;5005251;28;20030;-59
2023/05/16 06:00:12;;;;;;;23.35;13.73;;;;;;;14.67;100.00;98504.72;5010320;28;20045;-59
2023/05/16 06:02:37;;;;;;;23.55;13.90;;;;;;;14.74;100.00;98511.94;5006665;28;20018;-64
2023/05/16 06:05:03;;;;;;;23.17;14.55;;;;;;;14.67;100.00;98512.03;5001811;28;20149;-58
2023/05/16 06:07:29;;;;;;;19.35;13.07;;;;;;;14.75;100.00;98506.28;5010087;28;20030;-58
2023/05/16 06:09:54;;;;;;;20.95;13.18;;;;;;;14.60;100.00;98519.53;5001789;28;20021;-58
2023/05/16 06:12:19;;;;;;;18.10;12.30;;;;;;;14.95;100.00;98524.13;5003689;28;20172;-58
2023/05/16 06:14:45;;;;;;;19.88;12.60;;;;;;;14.83;100.00;98521.44;5013029;28;20037;-59
2023/05/16 06:17:10;;;;;;;21.08;13.13;;;;;;;14.79;100.00;98531.94;5011436;28;20018;-58
2023/05/16 06:19:36;;;;;;;18.40;12.57;;;;;;;14.74;100.00;98514.66;5010402;28;20037;-59
2023/05/16 06:22:01;;;;;;;19.00;11.90;;;;;;;14.96;100.00;98523.03;4999138;28;20018;-59
2023/05/16 06:24:28;;;;;;;20.23;12.27;;;;;;;14.76;100.00;98526.97;4993501;28;20038;-59
2023/05/16 06:26:54;;;;;;;17.42;11.55;;;;;;;15.02;100.00;98524.84;5005779;28;20037;-59
2023/05/16 06:29:19;;;;;;;19.02;11.95;;;;;;;15.11;100.00;98518.75;5011634;28;20042;-59
2023/05/16 06:31:46;;;;;;;20.70;12.43;;;;;;;15.36;100.00;98514.94;5009842;28;20026;-58
2023/05/16 06:34:11;;;;;;;16.27;11.23;;;;;;;15.36;100.00;98520.38;5005028;28;20523;-58
2023/05/16 06:36:37;;;;;;;18.67;11.85;;;;;;;15.48;100.00;98521.19;5009455;28;20029;-59
2023/05/16 06:39:03;;;;;;;18.88;11.13;;;;;;;15.50;100.00;98532.66;5010518;28;20084;-58
2023/05/16 06:41:29;;;;;;;20.70;11.68;;;;;;;15.42;100.00;98533.03;4994651;28;20018;-59
2023/05/16 06:43:56;;;;;;;18.55;11.63;;;;;;;15.41;100.00;98531.38;5007289;28;20073;-59
2023/05/16 06:46:21;;;;;;;21.15;12.50;;;;;;;15.41;100.00;98538.75;5007254;28;20084;-59
2023/05/16 06:48:47;;;;;;;16.00;10.88;;;;;;;15.49;100.00;98539.19;5014683;28;20105;-59
2023/05/16 06:51:12;;;;;;;19.73;11.52;;;;;;;15.46;100.00;98539.66;5007654;28;20030;-59
2023/05/16 06:53:37;;;;;;;19.00;11.60;;;;;;;15.32;100.00;98535.53;5003869;28;20037;-59
2023/05/16 06:56:03;;;;;;;16.50;10.70;;;;;;;15.29;100.00;98545.03;5008489;28;20107;-58
2023/05/16 06:58:29;;;;;;;16.52;11.27;;;;;;;15.16;100.00;98547.19;4999934;28;20116;-58
2023/05/16 07:00:54;;;;;;;16.70;10.57;;;;;;;15.20;100.00;98545.66;4992024;28;20117;-59
2023/05/16 07:03:20;;;;;;;20.90;11.18;;;;;;;15.15;100.00;98551.00;5010266;28;20444;-58
2023/05/16 07:05:45;;;;;;;16.85;10.07;;;;;;;15.03;100.00;98557.28;5006247;28;20026;-59
2023/05/16 07:08:11;;;;;;;15.50;9.77;;;;;;;14.99;100.00;98547.13;5009423;28;20176;-59
2023/05/16 07:10:39;;;;;;;17.08;9.68;;;;;;;15.20;100.00;98549.22;5009306;28;20104;-58
2023/05/16 07:13:05;;;;;;;12.30;8.80;;;;;;;15.26;100.00;98555.59;5008951;28;20026;-59
2023/05/16 07:15:31;;;;;;;14.43;9.50;;;;;;;15.02;100.00;98555.63;5006725;28;20402;-59
2023/05/16 07:17:56;;;;;;;13.63;8.73;;;;;;;14.93;100.00;98559.75;5006447;28;20027;-58
2023/05/16 07:20:22;;;;;;;13.85;9.32;;;;;;;14.88;100.00;98562.38;5002523;28;20479;-58
2023/05/16 07:22:47;;;;;;;11.27;7.60;;;;;;;14.95;100.00;98563.09;5004110;28;20100;-58
2023/05/16 07:25:14;;;;;;;16.33;8.77;;;;;;;15.10;100.00;98562.59;5011893;28;20026;-59
2023/05/16 07:27:41;;;;;;;11.32;7.82;;;;;;;15.17;100.00;98565.19;5006556;28;20034;-58
2023/05/16 07:30:11;;;;;;;11.05;7.88;;;;;;;15.24;100.00;98561.28;5011504;28;20026;-58
2023/05/16 07:32:37;;;;;;;9.80;7.50;;;;;;;15.41;100.00;98566.00;5000726;28;20022;-58
2023/05/16 07:35:03;;;;;;;11.60;7.72;;;;;;;15.55;100.00;98562.75;5004034;28;20032;-57
2023/05/16 07:37:28;;;;;;;14.93;8.30;;;;;;;15.71;100.00;98565.81;5004496;28;20037;-58
2023/05/16 07:39:54;;;;;;;10.02;7.93;;;;;;;15.98;100.00;98576.97;5003503;28;20026;-58
2023/05/16 07:42:20;;;;;;;12.10;8.27;;;;;;;16.12;100.00;98578.34;5005665;28;20087;-58
2023/05/16 07:44:46;;;;;;;11.63;7.80;;;;;;;16.08;100.00;98570.88;4985621;28;20038;-59
2023/05/16 07:47:11;;;;;;;13.57;8.55;;;;;;;16.22;100.00;98583.16;5004548;28;20378;-58
2023/05/16 07:49:37;;;;;;;14.45;8.45;;;;;;;16.37;100.00;98579.84;5007285;28;20034;-59
2023/05/16 07:52:02;;;;;;;12.43;8.75;;;;;;;16.67;100.00;98581.47;4998981;28;20117;-59
2023/05/16 07:54:27;;;;;;;12.10;8.13;;;;;;;16.83;100.00;98592.41;5011231;28;20037;-59
2023/05/16 07:56:53;;;;;;;12.55;8.82;;;;;;;17.02;100.00;98575.75;5009581;28;20057;-60
2023/05/16 07:59:19;;;;;;;12.90;9.00;;;;;;;17.12;100.00;98596.94;5013719;28;20065;-59
2023/05/16 08:01:45;;;;;;;12.20;7.35;;;;;;;17.16;100.00;98584.41;5007026;28;20037;-59
2023/05/16 08:04:10;;;;;;;12.95;8.70;;;;;;;17.11;100.00;98587.06;5008470;28;20056;-58
2023/05/16 08:06:35;;;;;;;13.32;9.18;;;;;;;17.29;100.00;98592.25;5012150;28;20088;-58
2023/05/16 08:09:01;;;;;;;11.73;7.85;;;;;;;16.90;100.00;98588.69;5014232;28;20053;-58
2023/05/16 08:11:27;;;;;;;14.05;9.13;;;;;;;16.95;100.00;98599.69;5006957;28;20496;-58
2023/05/16 08:13:52;;;;;;;14.73;8.73;;;;;;;16.80;100.00;98594.84;5001420;28;20036;-59
2023/05/16 08:16:17;;;;;;;12.95;9.02;;;;;;;17.06;100.00;98593.31;5013312;28;20033;-59
2023/05/16 08:18:43;;;;;;;12.30;9.32;;;;;;;17.15;100.00;98596.44;5013341;28;20037;-59
2023/05/16 08:21:08;;;;;;;16.92;10.10;;;;;;;16.89;100.00;98582.38;5012120;28;20769;-58
2023/05/16 08:23:35;;;;;;;15.45;10.25;;;;;;;17.03;100.00;98593.81;5004999;28;21270;-58
2023/05/16 08:26:01;;;;;;;17.30;9.98;;;;;;;17.05;100.00;98597.09;5009926;28;20040;-57
2023/05/16 08:28:27;;;;;;;14.70;10.80;;;;;;;16.96;100.00;98583.06;5009283;28;20029;-58
2023/05/16 08:30:53;;;;;;;15.52;10.65;;;;;;;16.94;100.00;98601.59;5012269;28;20030;-58
2023/05/16 08:33:18;;;;;;;16.58;10.82;;;;;;;17.07;100.00;98590.31;5015847;28;20041;-58
2023/05/16 08:35:44;;;;;;;15.80;11.25;;;;;;;16.94;100.00;98600.78;5031382;28;20363;-59
2023/05/16 08:38:09;;;;;;;16.83;11.55;;;;;;;16.61;100.00;98595.03;5007257;28;20029;-58
2023/05/16 08:40:35;;;;;;;17.55;12.27;;;;;;;16.57;100.00;98595.78;5007441;28;20107;-58
2023/05/16 08:43:01;;;;;;;17.48;11.48;;;;;;;16.42;100.00;98604.53;5007907;28;20053;-58
2023/05/16 08:45:27;;;;;;;23.25;13.05;;;;;;;15.77;100.00;98597.56;5006674;28;20037;-57
2023/05/16 08:47:56;;;;;;;19.35;13.40;;;;;;;15.71;100.00;98609.47;5011915;28;20037;-57
2023/05/16 08:50:24;;;;;;;19.35;12.60;;;;;;;15.49;100.00;98610.06;5008864;28;20025;-58
2023/05/16 08:52:51;;;;;;;19.75;12.57;;;;;;;15.44;100.00;98609.97;5026764;28;20034;-58
2023/05/16 08:55:19;;;;;;;19.05;13.20;;;;;;;15.32;100.00;98606.41;5011483;28;20029;-58
2023/05/16 08:57:48;;;;;;;21.75;13.23;;;;;;;15.66;100.00;98610.13;5008450;28;20095;-58
2023/05/16 09:00:14;;;;;;;22.70;13.07;;;;;;;15.76;100.00;98612.28;5010854;28;20052;-58
2023/05/16 09:02:42;;;;;;;22.27;13.60;;;;;;;15.61;100.00;98622.84;5010566;28;20417;-58
2023/05/16 09:05:12;;;;;;;23.23;13.52;;;;;;;15.55;100.00;98621.91;5013137;28;20025;-58
2023/05/16 09:07:39;;;;;;;24.25;13.70;;;;;;;15.33;100.00;98621.72;5008080;28;20026;-62
2023/05/16 09:10:08;;;;;;;20.95;12.55;;;;;;;15.24;100.00;98632.13;5010913;28;20029;-63
2023/05/16 09:12:34;;;;;;;21.00;13.20;;;;;;;15.28;100.00;98633.34;5008357;28;20061;-62
2023/05/16 09:15:05;;;;;;;22.02;13.82;;;;;;;14.92;100.00;98639.84;5013386;28;20032;-65
2023/05/16 09:17:38;;;;;;;22.73;13.15;;;;;;;14.94;100.00;98637.72;5010057;28;20022;-63
2023/05/16 09:20:13;;;;;;;23.77;13.98;;;;;;;15.06;100.00;98630.38;5015062;28;20565;-68
2023/05/16 09:22:40;;;;;;;22.15;14.43;;;;;;;14.98;100.00;98640.78;5014940;28;20116;-67
2023/05/16 09:25:06;;;;;;;25.13;13.77;;;;;;;15.25;100.00;98635.72;5001466;28;20034;-58
2023/05/16 09:27:32;;;;;;;21.20;13.63;;;;;;;15.22;100.00;98633.44;5005784;28;20030;-58
2023/05/16 09:29:58;;;;;;;21.08;13.85;;;;;;;15.42;100.00;98631.19;5012651;28;20033;-59
2023/05/16 09:32:24;;;;;;;25.40;13.93;;;;;;;15.24;100.00;98634.84;5002797;28;20482;-59
2023/05/16 09:34:52;;;;;;;27.38;13.82;;;;;;;15.43;100.00;98635.56;5008356;28;20033;-58
2023/05/16 09:37:19;;;;;;;22.58;13.73;;;;;;;15.18;100.00;98638.53;5008085;28;20041;-58
2023/05/16 09:39:49;;;;;;;21.15;13.35;;;;;;;14.92;100.00;98648.00;5007122;28;20029;-58
2023/05/16 09:42:16;;;;;;;22.40;13.93;;;;;;;14.95;100.00;98641.25;5011899;28;20025;-58
2023/05/16 09:44:50;;;;;;;21.13;13.40;;;;;;;14.81;100.00;98652.38;5005684;28;20030;-58
2023/05/16 09:47:20;;;;;;;23.50;13.95;;;;;;;14.81;100.00;98643.38;4992238;28;20038;-58
2023/05/16 09:49:47;;;;;;;24.45;12.85;;;;;;;14.91;100.00;98649.09;5003417;28;20481;-58
2023/05/16 09:52:13;;;;;;;22.27;13.18;;;;;;;15.08;100.00;98633.69;5013263;28;20438;-60
2023/05/16 09:54:39;;;;;;;22.25;13.90;;;;;;;15.10;100.00;98633.47;5016544;28;20040;-60
2023/05/16 09:57:04;;;;;;;24.77;13.05;;;;;;;15.55;100.00;98639.09;5011434;28;20025;-59
2023/05/16 09:59:35;;;;;;;21.38;13.45;;;;;;;15.67;100.00;98625.44;5010612;28;20044;-58
2023/05/16 10:02:02;;;;;;;23.08;12.88;;;;;;;16.00;100.00;98632.97;5011302;28;20093;-58
2023/05/16 10:04:27;;;;;;;21.17;13.38;;;;;;;16.26;100.00;98628.00;5012146;28;20113;-62
2023/05/16 10:06:56;;;;;;;17.52;11.88;;;;;;;16.37;100.00;98629.00;5011473;28;20109;-63
2023/05/16 10:09:23;;;;;;;23.95;13.38;;;;;;;16.43;100.00;98628.88;5012073;28;20064;-62
2023/05/16 10:11:50;;;;;;;18.98;11.65;;;;;;;16.42;100.00;98627.19;5009051;28;20133;-62
2023/05/16 10:14:18;;;;;;;24.02;12.50;;;;;;;16.29;100.00;98635.69;5008160;28;20026;-62
2023/05/16 10:16:46;;;;;;;22.52;11.95;;;;;;;16.50;100.00;98627.88;5008109;28;20080;-62
2023/05/16 10:19:13;;;;;;;19.35;12.25;;;;;;;16.34;100.00;98622.13;5010010;28;20026;-58
2023/05/16 10:21:42;;;;;;;19.58;11.57;;;;;;;16.16;100.00;98627.81;5006594;28;20026;-58
2023/05/16 10:24:10;;;;;;;19.00;11.40;;;;;;;16.10;100.00;98623.31;5006672;28;20389;-58
2023/05/16 10:26:36;;;;;;;18.50;11.73;;;;;;;15.87;100.00;98624.22;5007973;28;20029;-59
2023/05/16 10:29:02;;;;;;;16.73;10.95;;;;;;;15.94;100.00;98620.28;5000771;28;20025;-58
2023/05/16 10:31:28;;;;;;;18.05;11.15;;;;;;;15.86;100.00;98623.41;5001981;28;20512;-57
2023/05/16 10:33:56;;;;;;;18.55;11.40;;;;;;;15.77;100.00;98616.66;5009072;28;20026;-58
2023/05/16 10:36:22;;;;;;;20.25;11.57;;;;;;;16.17;100.00;98626.75;5008036;28;20585;-57
2023/05/16 10:38:49;;;;;;;16.92;10.30;;;;;;;15.88;100.00;98625.91;5011672;28;20116;-57
2023/05/16 10:41:15;;;;;;;17.35;10.57;;;;;;;15.74;100.00;98628.06;5010079;28;20022;-58
2023/05/16 10:43:45;;;;;;;16.67;9.82;;;;;;;15.92;100.00;98627.06;5006469;28;20029;-58
2023/05/16 10:46:11;;;;;;;17.73;10.02;;;;;;;15.90;100.00;98621.88;5010891;28;20029;-58
2023/05/16 10:48:38;;;;;;;15.68;9.02;;;;;;;15.76;100.00;98624.03;5009984;28;20025;-57
2023/05/16 10:51:22;;;;;;;17.17;9.77;;;;;;;15.48;100.00;98626.66;5003744;28;20026;-57
2023/05/16 10:53:54;;;;;;;15.95;10.00;;;;;;;15.33;100.00;98635.34;5010450;28;20061;-58
2023/05/16 10:56:24;;;;;;;15.85;9.25;;;;;;;15.05;100.00;98642.34;5008372;28;20038;-61
2023/05/16 10:58:53;;;;;;;14.13;8.30;;;;;;;15.06;100.00;98640.44;5007206;28;20030;-63
2023/05/16 11:01:31;;;;;;;9.65;6.70;;;;;;;14.95;100.00;98639.34;5003938;28;20499;-62
2023/05/16 11:04:03;;;;;;;12.00;7.10;;;;;;;14.66;100.00;98635.66;5003466;28;20041;-62
2023/05/16 11:06:32;;;;;;;13.20;7.15;;;;;;;14.31;100.00;98638.25;5004725;28;20052;-62
2023/05/16 11:09:13;;;;;;;12.90;7.05;;;;;;;14.36;100.00;98641.94;5007180;28;20065;-57
2023/05/16 11:11:51;;;;;;;10.73;6.40;;;;;;;14.37;100.00;98648.22;5011329;28;20175;-58
2023/05/16 11:14:30;;;;;;;9.63;6.07;;;;;;;14.49;100.00;98649.09;5004442;28;20411;-58